createdAt,value
2018-04-15T00:01:49.288Z,15.30
2018-04-15T00:04:17.667Z,15.30
2018-04-15T00:06:46.045Z,15.10
2018-04-15T00:09:15.010Z,15.00
2018-04-15T00:11:43.377Z,14.80
2018-04-15T00:14:11.849Z,14.40
2018-04-15T00:16:40.260Z,14.20
2018-04-15T00:19:08.655Z,14.30
2018-04-15T00:21:37.807Z,14.30
2018-04-15T00:24:06.330Z,14.30
2018-04-15T00:26:34.770Z,14.20
2018-04-15T00:29:03.155Z,14.10
2018-04-15T00:31:31.563Z,14.10
2018-04-15T00:33:59.947Z,14.20
2018-04-15T00:36:28.315Z,14.30
2018-04-15T00:38:56.839Z,14.40
2018-04-15T00:41:25.238Z,14.50
2018-04-15T00:43:53.618Z,14.60
2018-04-15T00:46:22.001Z,14.70
2018-04-15T00:48:50.400Z,14.70
2018-04-15T00:51:18.761Z,14.60
2018-04-15T00:53:59.096Z,14.50
2018-04-15T00:56:27.457Z,14.40
2018-04-15T00:58:55.839Z,14.00
2018-04-15T01:01:24.209Z,14.00
2018-04-15T01:03:53.376Z,14.00
2018-04-15T01:06:21.743Z,14.00
2018-04-15T01:08:50.114Z,14.10
2018-04-15T01:11:18.680Z,14.10
2018-04-15T01:13:47.053Z,14.20
2018-04-15T01:16:15.465Z,14.30
2018-04-15T01:18:44.086Z,14.40
2018-04-15T01:21:13.235Z,14.10
2018-04-15T01:23:41.598Z,14.10
2018-04-15T01:26:09.986Z,13.90
2018-04-15T01:28:38.354Z,13.90
2018-04-15T01:31:07.512Z,13.80
2018-04-15T01:33:36.716Z,13.80
2018-04-15T01:36:05.110Z,13.80
2018-04-15T01:38:33.467Z,13.70
2018-04-15T01:41:01.868Z,13.70
2018-04-15T01:43:30.219Z,13.70
2018-04-15T01:45:58.651Z,13.60
2018-04-15T01:48:27.134Z,13.70
2018-04-15T01:50:55.511Z,13.70
2018-04-15T01:53:23.887Z,13.70
2018-04-15T01:55:52.260Z,13.70
2018-04-15T01:58:20.630Z,13.60
2018-04-15T02:00:49.022Z,13.50
2018-04-15T02:03:17.395Z,13.50
2018-04-15T02:05:45.846Z,13.30
2018-04-15T02:08:14.222Z,13.20
2018-04-15T02:10:42.667Z,13.20
2018-04-15T02:13:12.064Z,12.90
2018-04-15T02:15:41.218Z,12.70
2018-04-15T02:18:09.580Z,12.70
2018-04-15T02:20:38.014Z,12.70
2018-04-15T02:23:07.162Z,12.70
2018-04-15T02:25:35.653Z,12.70
2018-04-15T02:28:04.042Z,12.80
2018-04-15T02:30:32.439Z,12.90
2018-04-15T02:33:00.763Z,13.00
2018-04-15T02:35:29.137Z,13.10
2018-04-15T02:37:57.792Z,13.30
2018-04-15T02:40:26.930Z,13.50
2018-04-15T02:42:55.362Z,13.50
2018-04-15T02:45:24.546Z,13.70
2018-04-15T02:47:52.928Z,13.70
2018-04-15T02:50:21.308Z,13.70
2018-04-15T02:52:49.694Z,13.70
2018-04-15T02:55:18.055Z,13.60
2018-04-15T02:57:46.415Z,13.70
2018-04-15T03:00:14.983Z,13.80
2018-04-15T03:02:43.354Z,13.90
2018-04-15T03:05:11.711Z,13.90
2018-04-15T03:07:40.106Z,13.90
2018-04-15T03:10:08.493Z,14.00
2018-04-15T03:12:36.865Z,13.90
2018-04-15T03:15:05.221Z,13.90
2018-04-15T03:17:33.625Z,13.80
2018-04-15T03:20:01.992Z,13.80
2018-04-15T03:22:30.374Z,13.80
2018-04-15T03:24:58.739Z,13.90
2018-04-15T03:27:27.142Z,13.90
2018-04-15T03:29:55.513Z,13.90
2018-04-15T03:32:23.975Z,14.00
2018-04-15T03:34:52.374Z,14.00
2018-04-15T03:37:20.762Z,13.90
2018-04-15T03:39:49.126Z,13.90
2018-04-15T03:42:17.477Z,13.90
2018-04-15T03:44:46.195Z,13.90
2018-04-15T03:47:15.351Z,14.00
2018-04-15T03:49:43.728Z,14.00
2018-04-15T03:52:13.116Z,14.00
2018-04-15T03:54:42.249Z,13.90
2018-04-15T03:57:10.630Z,13.90
2018-04-15T03:59:39.010Z,13.80
2018-04-15T04:02:07.396Z,13.90
2018-04-15T04:04:35.787Z,13.90
2018-04-15T04:07:04.173Z,14.00
2018-04-15T04:09:32.563Z,14.10
2018-04-15T04:12:00.931Z,14.20
2018-04-15T04:14:29.416Z,14.30
2018-04-15T04:16:57.782Z,14.30
2018-04-15T04:19:38.168Z,14.20
2018-04-15T04:22:18.381Z,14.30
2018-04-15T04:24:58.330Z,14.30
2018-04-15T04:27:26.712Z,14.30
2018-04-15T04:29:55.086Z,14.20
2018-04-15T04:32:23.474Z,14.20
2018-04-15T04:34:51.885Z,14.10
2018-04-15T04:37:21.524Z,14.30
2018-04-15T04:39:50.003Z,14.30
2018-04-15T04:42:18.482Z,14.30
2018-04-15T04:44:47.594Z,14.40
2018-04-15T04:47:15.999Z,14.40
2018-04-15T04:49:44.358Z,14.40
2018-04-15T04:52:12.792Z,14.50
2018-04-15T04:54:41.906Z,14.50
2018-04-15T04:57:10.293Z,14.50
2018-04-15T04:59:39.422Z,14.60
2018-04-15T05:02:08.843Z,14.60
2018-04-15T05:04:37.231Z,14.60
2018-04-15T05:07:05.654Z,14.60
2018-04-15T05:09:34.029Z,14.80
2018-04-15T05:12:02.399Z,14.80
2018-04-15T05:14:30.773Z,14.80
2018-04-15T05:16:59.162Z,14.80
2018-04-15T05:19:27.548Z,14.70
2018-04-15T05:21:55.926Z,14.80
2018-04-15T05:24:24.328Z,14.80
2018-04-15T05:26:52.664Z,14.80
2018-04-15T05:29:21.042Z,14.80
2018-04-15T05:31:49.427Z,14.80
2018-04-15T05:34:17.822Z,14.80
2018-04-15T05:36:46.205Z,14.90
2018-04-15T05:39:14.602Z,14.90
2018-04-15T05:41:42.975Z,14.90
2018-04-15T05:44:11.352Z,14.90
2018-04-15T05:46:40.158Z,14.80
2018-04-15T05:49:09.488Z,14.70
2018-04-15T05:51:38.874Z,14.70
2018-04-15T05:54:08.022Z,14.70
2018-04-15T05:56:36.408Z,14.70
2018-04-15T05:59:05.357Z,14.70
2018-04-15T06:01:34.524Z,14.70
2018-04-15T06:04:02.998Z,14.70
2018-04-15T06:06:31.518Z,14.70
2018-04-15T06:08:59.957Z,14.80
2018-04-15T06:11:28.316Z,14.90
2018-04-15T06:13:56.751Z,15.00
2018-04-15T06:16:25.170Z,15.10
2018-04-15T06:18:54.314Z,15.20
2018-04-15T06:21:23.466Z,15.20
2018-04-15T06:23:51.833Z,15.20
2018-04-15T06:26:20.967Z,15.30
2018-04-15T06:28:50.115Z,15.40
2018-04-15T06:31:18.490Z,15.50
2018-04-15T06:33:46.876Z,15.60
2018-04-15T06:36:15.255Z,15.80
2018-04-15T06:38:43.679Z,16.00
2018-04-15T06:41:12.077Z,16.10
2018-04-15T06:43:40.490Z,16.10
2018-04-15T06:46:08.885Z,16.20
2018-04-15T06:48:37.331Z,16.30
2018-04-15T06:51:05.702Z,16.50
2018-04-15T06:53:34.077Z,16.60
2018-04-15T06:56:02.465Z,16.70
2018-04-15T06:58:30.841Z,16.80
2018-04-15T07:00:59.218Z,17.10
2018-04-15T07:03:33.029Z,17.20
2018-04-15T07:06:02.364Z,17.40
2018-04-15T07:08:30.834Z,17.40
2018-04-15T07:10:59.427Z,17.50
2018-04-15T07:13:27.855Z,17.60
2018-04-15T07:15:56.243Z,17.70
2018-04-15T07:18:24.751Z,17.70
2018-04-15T07:20:53.135Z,17.70
2018-04-15T07:23:22.319Z,17.60
2018-04-15T07:25:50.903Z,17.60
2018-04-15T07:28:19.426Z,17.60
2018-04-15T07:30:47.817Z,17.60
2018-04-15T07:33:16.971Z,17.50
2018-04-15T07:35:45.480Z,17.40
2018-04-15T07:38:13.926Z,17.40
2018-04-15T07:40:43.091Z,17.40
2018-04-15T07:43:11.484Z,17.40
2018-04-15T07:45:39.867Z,17.30
2018-04-15T07:48:08.241Z,17.30
2018-04-15T07:50:36.673Z,17.40
2018-04-15T07:53:05.074Z,17.50
2018-04-15T07:55:33.466Z,17.50
2018-04-15T07:58:01.852Z,17.60
2018-04-15T08:00:31.079Z,17.90
2018-04-15T08:02:59.454Z,17.90
2018-04-15T08:05:27.835Z,18.10
2018-04-15T08:07:56.202Z,18.20
2018-04-15T08:10:24.605Z,18.40
2018-04-15T08:12:52.979Z,18.40
2018-04-15T08:15:21.376Z,18.40
2018-04-15T08:17:50.537Z,18.40
2018-04-15T08:20:19.730Z,18.50
2018-04-15T08:22:48.099Z,18.40
2018-04-15T08:25:16.529Z,18.50
2018-04-15T08:27:44.877Z,18.60
2018-04-15T08:30:13.261Z,18.70
2018-04-15T08:32:41.631Z,18.80
2018-04-15T08:35:10.025Z,18.80
2018-04-15T08:37:38.726Z,18.90
2018-04-15T08:40:07.874Z,19.20
2018-04-15T08:42:36.238Z,19.20
2018-04-15T08:45:04.621Z,19.30
2018-04-15T08:47:32.974Z,19.30
2018-04-15T08:50:01.522Z,19.40
2018-04-15T08:52:30.680Z,19.50
2018-04-15T08:54:59.036Z,19.50
2018-04-15T08:57:27.428Z,19.70
2018-04-15T08:59:55.786Z,19.80
2018-04-15T09:02:24.233Z,20.00
2018-04-15T09:04:52.584Z,20.20
2018-04-15T09:07:21.047Z,20.30
2018-04-15T09:09:49.530Z,20.30
2018-04-15T09:12:17.915Z,20.30
2018-04-15T09:14:46.292Z,20.30
2018-04-15T09:17:15.500Z,20.50
2018-04-15T09:19:43.830Z,20.50
2018-04-15T09:22:12.332Z,20.60
2018-04-15T09:24:40.695Z,20.60
2018-04-15T09:27:09.167Z,20.70
2018-04-15T09:29:37.550Z,20.70
2018-04-15T09:32:05.947Z,20.80
2018-04-15T09:34:34.468Z,20.90
2018-04-15T09:37:02.908Z,21.00
2018-04-15T09:39:31.997Z,21.10
2018-04-15T09:42:00.398Z,21.10
2018-04-15T09:44:28.799Z,21.30
2018-04-15T09:46:57.251Z,21.30
2018-04-15T09:49:25.404Z,21.30
2018-04-15T09:51:53.777Z,21.30
2018-04-15T09:54:22.184Z,21.30
2018-04-15T09:56:50.651Z,21.30
2018-04-15T09:59:19.081Z,21.50
2018-04-15T10:01:48.662Z,21.80
2018-04-15T10:04:17.025Z,21.70
2018-04-15T10:06:45.493Z,21.90
2018-04-15T10:09:13.915Z,22.00
2018-04-15T10:11:42.286Z,22.10
2018-04-15T10:14:10.683Z,22.00
2018-04-15T10:16:39.827Z,22.00
2018-04-15T10:19:08.265Z,22.00
2018-04-15T10:21:37.448Z,21.80
2018-04-15T10:24:06.702Z,21.70
2018-04-15T10:26:35.054Z,21.80
2018-04-15T10:29:03.432Z,22.00
2018-04-15T10:31:32.155Z,22.10
2018-04-15T10:34:00.559Z,22.40
2018-04-15T10:36:28.972Z,22.50
2018-04-15T10:38:57.374Z,22.60
2018-04-15T10:41:25.743Z,22.70
2018-04-15T10:43:54.991Z,22.80
2018-04-15T10:46:23.359Z,22.80
2018-04-15T10:48:52.121Z,22.90
2018-04-15T10:51:21.911Z,23.00
2018-04-15T10:53:50.457Z,23.00
2018-04-15T10:56:19.991Z,22.80
2018-04-15T10:58:48.356Z,22.80
2018-04-15T11:01:16.763Z,22.80
2018-04-15T11:03:45.969Z,22.90
2018-04-15T11:06:14.377Z,22.90
2018-04-15T11:08:42.781Z,23.00
2018-04-15T11:11:11.162Z,23.10
2018-04-15T11:13:39.703Z,23.20
2018-04-15T11:16:08.195Z,23.20
2018-04-15T11:18:36.604Z,23.20
2018-04-15T11:21:05.746Z,23.20
2018-04-15T11:23:34.106Z,23.20
2018-04-15T11:26:02.550Z,23.30
2018-04-15T11:28:31.382Z,23.20
2018-04-15T11:31:00.245Z,23.20
2018-04-15T11:33:28.614Z,23.20
2018-04-15T11:35:57.033Z,23.30
2018-04-15T11:38:25.587Z,23.50
2018-04-15T11:40:54.768Z,23.40
2018-04-15T11:43:23.877Z,23.50
2018-04-15T11:45:52.238Z,23.50
2018-04-15T11:48:21.518Z,23.70
2018-04-15T11:50:50.108Z,23.60
2018-04-15T11:53:19.239Z,23.90
2018-04-15T11:55:47.603Z,23.90
2018-04-15T11:58:16.388Z,23.80
2018-04-15T12:00:44.860Z,23.90
2018-04-15T12:03:13.300Z,24.00
2018-04-15T12:05:42.179Z,24.10
2018-04-15T12:08:11.450Z,24.10
2018-04-15T12:10:39.842Z,24.10
2018-04-15T12:13:08.216Z,24.20
2018-04-15T12:15:37.222Z,24.10
2018-04-15T12:18:06.054Z,24.20
2018-04-15T12:20:35.236Z,24.20
2018-04-15T12:23:03.619Z,24.20
2018-04-15T12:25:32.251Z,24.20
2018-04-15T12:28:00.643Z,24.10
2018-04-15T12:30:29.461Z,23.80
2018-04-15T12:32:58.093Z,23.70
2018-04-15T12:35:26.490Z,23.90
2018-04-15T12:37:54.862Z,24.10
2018-04-15T12:40:23.834Z,24.20
2018-04-15T12:42:52.475Z,24.40
2018-04-15T12:45:21.870Z,24.60
2018-04-15T12:47:51.193Z,24.60
2018-04-15T12:50:20.763Z,24.60
2018-04-15T12:52:49.167Z,24.60
2018-04-15T12:55:17.513Z,24.50
2018-04-15T12:57:46.770Z,24.40
2018-04-15T13:00:15.994Z,24.30
2018-04-15T13:02:44.885Z,24.20
2018-04-15T13:05:13.271Z,24.20
2018-04-15T13:07:41.929Z,24.10
2018-04-15T13:10:10.328Z,24.00
2018-04-15T13:12:38.719Z,23.90
2018-04-15T13:15:07.251Z,23.70
2018-04-15T13:17:36.411Z,23.60
2018-04-15T13:20:04.789Z,23.60
2018-04-15T13:22:33.170Z,23.50
2018-04-15T13:25:01.660Z,23.40
2018-04-15T13:27:30.792Z,23.30
2018-04-15T13:29:59.207Z,23.30
2018-04-15T13:32:27.611Z,23.20
2018-04-15T13:34:56.079Z,23.20
2018-04-15T13:37:24.600Z,23.10
2018-04-15T13:39:53.734Z,23.00
2018-04-15T13:42:22.336Z,23.00
2018-04-15T13:44:51.594Z,23.10
2018-04-15T13:47:20.486Z,23.10
2018-04-15T13:49:48.946Z,23.00
2018-04-15T13:52:18.767Z,23.00
2018-04-15T13:54:47.179Z,23.00
2018-04-15T13:57:15.935Z,23.10
2018-04-15T13:59:44.551Z,23.10
2018-04-15T14:02:13.049Z,23.10
2018-04-15T14:04:41.618Z,23.20
2018-04-15T14:07:10.463Z,23.00
2018-04-15T14:09:38.856Z,23.00
2018-04-15T14:12:07.435Z,23.00
2018-04-15T14:14:36.240Z,23.00
2018-04-15T14:17:04.614Z,23.00
2018-04-15T14:19:33.019Z,23.10
2018-04-15T14:22:01.377Z,23.30
2018-04-15T14:24:29.810Z,23.40
2018-04-15T14:26:59.063Z,23.50
2018-04-15T14:29:27.440Z,23.50
2018-04-15T14:31:55.819Z,23.60
2018-04-15T14:34:24.606Z,23.70
2018-04-15T14:36:53.891Z,23.80
2018-04-15T14:39:22.293Z,23.80
2018-04-15T14:41:50.664Z,23.90
2018-04-15T14:44:19.779Z,23.90
2018-04-15T14:46:48.120Z,24.00
2018-04-15T14:49:16.501Z,24.00
2018-04-15T14:51:44.867Z,23.90
2018-04-15T14:54:14.048Z,23.70
2018-04-15T14:56:42.885Z,23.70
2018-04-15T14:59:12.673Z,23.70
2018-04-15T15:01:42.140Z,23.70
2018-04-15T15:04:13.944Z,23.70
2018-04-15T15:06:43.837Z,23.70
2018-04-15T15:09:13.383Z,23.70
2018-04-15T15:11:42.201Z,23.70
2018-04-15T15:14:11.719Z,23.60
2018-04-15T15:16:40.847Z,23.60
2018-04-15T15:19:10.210Z,23.60
2018-04-15T15:21:39.684Z,23.70
2018-04-15T15:24:08.279Z,23.60
2018-04-15T15:26:37.431Z,23.70
2018-04-15T15:29:07.546Z,23.70
2018-04-15T15:31:36.957Z,23.70
2018-04-15T15:34:05.514Z,23.70
2018-04-15T15:36:33.909Z,23.70
2018-04-15T15:39:03.074Z,23.80
2018-04-15T15:41:32.233Z,23.80
2018-04-15T15:44:00.585Z,23.80
2018-04-15T15:46:28.972Z,23.80
2018-04-15T15:48:57.374Z,23.70
2018-04-15T15:51:26.140Z,23.70
2018-04-15T15:53:55.835Z,23.70
2018-04-15T15:56:24.263Z,23.70
2018-04-15T15:58:53.637Z,23.60
2018-04-15T16:01:22.666Z,23.60
2018-04-15T16:03:51.808Z,23.50
2018-04-15T16:06:21.033Z,23.40
2018-04-15T16:08:49.610Z,23.40
2018-04-15T16:11:17.990Z,23.40
2018-04-15T16:13:46.484Z,23.40
2018-04-15T16:16:16.151Z,23.40
2018-04-15T16:18:44.690Z,23.40
2018-04-15T16:21:13.378Z,23.40
2018-04-15T16:23:42.716Z,23.40
2018-04-15T16:26:12.083Z,23.40
2018-04-15T16:28:40.994Z,23.50
2018-04-15T16:31:09.376Z,23.40
2018-04-15T16:33:38.802Z,23.40
2018-04-15T16:36:08.461Z,23.40
2018-04-15T16:38:37.136Z,23.40
2018-04-15T16:41:06.430Z,23.30
2018-04-15T16:43:34.997Z,23.30
2018-04-15T16:46:04.154Z,23.30
2018-04-15T16:48:32.565Z,23.30
2018-04-15T16:51:00.972Z,23.20
2018-04-15T16:53:30.091Z,23.20
2018-04-15T16:55:58.491Z,23.20
2018-04-15T16:58:30.546Z,23.30
2018-04-15T17:00:59.131Z,23.20
2018-04-15T17:03:27.647Z,23.10
2018-04-15T17:05:56.031Z,23.10
2018-04-15T17:08:24.430Z,23.00
2018-04-15T17:10:53.130Z,23.00
2018-04-15T17:13:21.587Z,23.00
2018-04-15T17:15:50.781Z,22.90
2018-04-15T17:18:19.966Z,22.90
2018-04-15T17:20:49.275Z,22.80
2018-04-15T17:23:17.757Z,22.80
2018-04-15T17:25:47.293Z,22.80
2018-04-15T17:28:15.715Z,22.80
2018-04-15T17:30:45.314Z,22.80
2018-04-15T17:33:13.728Z,22.80
2018-04-15T17:35:43.002Z,22.80
2018-04-15T17:38:11.416Z,22.70
2018-04-15T17:40:40.559Z,22.70
2018-04-15T17:43:09.077Z,22.60
2018-04-15T17:45:38.246Z,22.40
2018-04-15T17:48:06.648Z,22.40
2018-04-15T17:50:35.049Z,22.20
2018-04-15T17:53:04.347Z,21.80
2018-04-15T17:55:32.727Z,21.80
2018-04-15T17:58:04.745Z,21.70
2018-04-15T18:00:33.211Z,21.70
2018-04-15T18:03:02.101Z,21.70
2018-04-15T18:05:30.654Z,21.70
2018-04-15T18:07:59.073Z,21.60
2018-04-15T18:10:27.482Z,21.50
2018-04-15T18:12:56.652Z,21.30
2018-04-15T18:15:25.160Z,21.30
2018-04-15T18:17:53.945Z,21.30
2018-04-15T18:20:22.378Z,21.30
2018-04-15T18:22:50.808Z,21.30
2018-04-15T18:25:20.247Z,21.40
2018-04-15T18:27:48.636Z,21.30
2018-04-15T18:30:17.546Z,21.30
2018-04-15T18:32:46.742Z,21.20
2018-04-15T18:35:15.630Z,21.20
2018-04-15T18:37:44.584Z,21.20
2018-04-15T18:40:13.263Z,21.20
2018-04-15T18:42:41.675Z,21.20
2018-04-15T18:45:10.821Z,20.80
2018-04-15T18:47:40.064Z,20.80
2018-04-15T18:50:09.703Z,20.80
2018-04-15T18:52:38.041Z,20.80
2018-04-15T18:55:06.505Z,20.80
2018-04-15T18:57:36.138Z,20.70
2018-04-15T19:00:04.936Z,20.70
2018-04-15T19:02:34.093Z,20.80
2018-04-15T19:05:03.183Z,20.80
2018-04-15T19:07:31.952Z,20.90
2018-04-15T19:10:01.536Z,20.70
2018-04-15T19:12:29.935Z,20.70
2018-04-15T19:14:59.102Z,20.50
2018-04-15T19:17:27.517Z,20.50
2018-04-15T19:19:56.874Z,20.50
2018-04-15T19:22:25.311Z,20.50
2018-04-15T19:24:53.896Z,20.50
2018-04-15T19:27:23.043Z,20.50
2018-04-15T19:29:51.557Z,20.50
2018-04-15T19:32:21.124Z,20.50
2018-04-15T19:34:51.228Z,20.50
2018-04-15T19:37:19.657Z,20.50
2018-04-15T19:39:48.852Z,20.30
2018-04-15T19:42:18.029Z,20.20
2018-04-15T19:44:46.756Z,20.20
2018-04-15T19:47:15.158Z,20.10
2018-04-15T19:49:43.981Z,20.10
2018-04-15T19:52:12.842Z,20.10
2018-04-15T19:54:41.302Z,20.10
2018-04-15T19:57:10.482Z,19.80
2018-04-15T19:59:38.881Z,19.80
2018-04-15T20:02:07.346Z,19.70
2018-04-15T20:04:35.840Z,19.60
2018-04-15T20:07:04.338Z,19.60
2018-04-15T20:09:32.766Z,19.60
2018-04-15T20:12:01.960Z,19.70
2018-04-15T20:14:30.795Z,19.60
2018-04-15T20:16:59.528Z,19.70
2018-04-15T20:19:28.690Z,19.70
2018-04-15T20:21:57.951Z,19.80
2018-04-15T20:24:26.354Z,19.80
2018-04-15T20:26:54.854Z,19.90
2018-04-15T20:29:23.359Z,19.90
2018-04-15T20:31:52.048Z,19.90
2018-04-15T20:34:20.423Z,19.90
2018-04-15T20:36:49.622Z,19.80
2018-04-15T20:39:18.861Z,19.90
2018-04-15T20:41:47.644Z,19.80
2018-04-15T20:44:16.068Z,19.80
2018-04-15T20:46:44.531Z,19.80
2018-04-15T20:49:12.906Z,19.80
2018-04-15T20:51:41.427Z,19.80
2018-04-15T20:54:11.251Z,19.80
2018-04-15T20:56:40.432Z,19.80
2018-04-15T20:59:08.950Z,19.80
2018-04-15T21:01:37.357Z,19.80
2018-04-15T21:04:05.798Z,19.80
2018-04-15T21:06:34.416Z,19.80
2018-04-15T21:09:02.824Z,19.90
2018-04-15T21:11:31.231Z,19.80
2018-04-15T21:14:00.407Z,19.80
2018-04-15T21:16:29.622Z,19.70
2018-04-15T21:18:58.770Z,19.60
2018-04-15T21:21:27.912Z,19.60
2018-04-15T21:23:57.379Z,19.60
2018-04-15T21:26:25.947Z,19.50
2018-04-15T21:28:54.344Z,19.50
2018-04-15T21:31:22.741Z,19.40
2018-04-15T21:33:52.519Z,19.40
2018-04-15T21:36:21.401Z,19.40
2018-04-15T21:38:49.916Z,19.40
2018-04-15T21:41:18.280Z,19.40
2018-04-15T21:43:46.851Z,19.20
2018-04-15T21:46:15.267Z,18.90
2018-04-15T21:48:44.416Z,18.80
2018-04-15T21:51:12.818Z,18.80
2018-04-15T21:53:41.576Z,18.90
2018-04-15T21:56:09.983Z,19.00
2018-04-15T21:58:39.563Z,19.00
2018-04-15T22:01:07.942Z,19.10
2018-04-15T22:03:36.956Z,19.00
2018-04-15T22:06:05.353Z,19.00
2018-04-15T22:08:34.581Z,19.00
2018-04-15T22:11:04.274Z,19.00
2018-04-15T22:13:33.530Z,19.10
2018-04-15T22:16:02.314Z,19.10
2018-04-15T22:18:31.047Z,19.10
2018-04-15T22:20:59.564Z,18.90
2018-04-15T22:23:28.598Z,18.70
2018-04-15T22:25:56.963Z,18.50
2018-04-15T22:28:25.345Z,18.40
2018-04-15T22:30:53.990Z,18.30
2018-04-15T22:33:22.395Z,18.40
2018-04-15T22:35:50.842Z,18.40
2018-04-15T22:38:19.214Z,18.30
2018-04-15T22:40:47.669Z,18.30
2018-04-15T22:43:16.864Z,18.40
2018-04-15T22:45:46.019Z,18.40
2018-04-15T22:48:14.568Z,18.40
2018-04-15T22:50:43.126Z,18.40
2018-04-15T22:53:11.854Z,18.40
2018-04-15T22:55:40.241Z,18.30
2018-04-15T22:58:08.647Z,18.00
2018-04-15T23:00:37.062Z,17.70
2018-04-15T23:03:05.434Z,17.70
2018-04-15T23:05:33.850Z,17.80
2018-04-15T23:08:02.222Z,17.90
2018-04-15T23:10:30.633Z,17.80
2018-04-15T23:12:59.504Z,17.80
2018-04-15T23:15:28.521Z,17.90
2018-04-15T23:17:56.883Z,17.90
2018-04-15T23:20:25.257Z,18.00
2018-04-15T23:22:53.633Z,18.00
2018-04-15T23:25:22.034Z,18.00
2018-04-15T23:27:50.455Z,18.10
2018-04-15T23:30:18.862Z,18.10
2018-04-15T23:32:48.050Z,18.20
2018-04-15T23:35:16.442Z,18.20
2018-04-15T23:37:45.746Z,18.20
2018-04-15T23:40:14.169Z,18.20
2018-04-15T23:42:43.338Z,18.10
2018-04-15T23:45:12.850Z,18.10
2018-04-15T23:47:41.242Z,18.20
2018-04-15T23:50:11.020Z,18.10
2018-04-15T23:52:39.395Z,18.10
2018-04-15T23:55:07.799Z,18.10
2018-04-15T23:57:37.309Z,18.10
